Time;durP1;ratioP1;P1;durP2;ratioP2;P2;SDS_P1;SDS_P2;PMS_P1;PMS_P2;Temp;Humidity;BMP_temperature;BMP_pressure;BME280_temperature;BME280_humidity;BME280_pressure;Samples;Min_cycle;Max_cycle;Signal;HPM_P1;HPM_P2
2022/07/17 00:02:22;;;;;;;2.53;1.20;;;16.30;89.40;;;16.62;70.80;101984.84;5170377;28;20511;-75
2022/07/17 00:04:54;;;;;;;3.08;1.20;;;16.30;89.80;;;16.54;71.18;101988.16;5187743;28;20049;-74
2022/07/17 00:07:26;;;;;;;2.83;1.10;;;16.20;90.10;;;16.51;71.43;101993.34;5199842;28;20048;-76
2022/07/17 00:10:00;;;;;;;2.95;1.20;;;16.10;90.30;;;16.46;71.70;101988.78;5206235;28;20446;-74
2022/07/17 00:12:32;;;;;;;2.03;1.13;;;16.10;90.50;;;16.44;71.66;101988.75;5208753;28;20534;-75
2022/07/17 00:15:05;;;;;;;1.95;1.10;;;16.10;90.60;;;16.42;71.80;101993.06;5208977;28;20053;-75
2022/07/17 00:17:38;;;;;;;2.55;1.05;;;16.00;90.70;;;16.39;71.89;101985.09;5207024;28;20536;-74
2022/07/17 00:20:11;;;;;;;2.35;0.98;;;16.00;91.10;;;16.35;72.07;101985.84;5198109;28;20033;-74
2022/07/17 00:22:43;;;;;;;2.85;1.20;;;16.00;91.30;;;16.31;72.37;101990.97;5197575;28;20049;-74
2022/07/17 00:25:17;;;;;;;4.22;2.45;;;15.90;91.20;;;16.28;72.68;101990.00;5187133;28;20141;-75
2022/07/17 00:27:49;;;;;;;2.35;1.38;;;15.90;91.40;;;16.25;72.69;101986.41;5198496;28;20168;-74
2022/07/17 00:30:22;;;;;;;1.40;1.00;;;15.90;91.80;;;16.22;73.02;101988.94;5198709;28;20052;-75
2022/07/17 00:32:54;;;;;;;1.23;0.98;;;15.90;91.70;;;16.19;73.38;101994.13;5180142;28;20482;-75
2022/07/17 00:35:26;;;;;;;1.55;1.15;;;15.80;91.90;;;16.15;73.60;101979.06;5200958;28;20494;-75
2022/07/17 00:37:58;;;;;;;2.42;1.17;;;15.80;92.10;;;16.13;73.62;101986.94;5201974;28;20115;-75
2022/07/17 00:40:32;;;;;;;2.38;1.25;;;15.80;92.20;;;16.11;73.68;101986.00;5198836;28;20042;-75
2022/07/17 00:43:04;;;;;;;1.67;1.15;;;15.80;92.30;;;16.11;73.09;101990.38;5204795;28;20140;-75
2022/07/17 00:45:36;;;;;;;1.33;0.90;;;15.70;92.10;;;16.12;73.03;101986.88;5207674;28;20409;-75
2022/07/17 00:48:12;;;;;;;1.25;0.90;;;15.70;92.20;;;16.10;72.91;101983.28;5180728;28;20045;-75
2022/07/17 00:50:44;;;;;;;1.50;1.00;;;15.70;92.20;;;16.10;72.36;101984.19;5203001;28;20837;-75
2022/07/17 00:53:16;;;;;;;2.42;0.98;;;15.70;92.30;;;16.11;72.21;101986.00;5187060;28;20046;-75
2022/07/17 00:55:51;;;;;;;1.58;0.95;;;15.70;92.00;;;16.10;72.15;101978.03;5204998;28;20065;-76
2022/07/17 00:58:25;;;;;;;4.20;1.25;;;15.70;92.10;;;16.05;72.35;101971.75;5200961;28;20577;-75
2022/07/17 01:00:57;;;;;;;0.95;0.90;;;15.70;92.10;;;16.02;72.48;101972.53;5196854;28;20128;-74
2022/07/17 01:03:30;;;;;;;1.65;1.00;;;15.70;92.30;;;15.98;73.05;101979.47;5188681;28;20041;-75
2022/07/17 01:06:02;;;;;;;1.08;0.82;;;15.60;92.50;;;15.93;73.43;101970.53;5197626;28;20099;-75
2022/07/17 01:08:36;;;;;;;1.73;1.10;;;15.60;92.70;;;15.90;73.46;101975.66;5191777;28;20056;-75
2022/07/17 01:11:10;;;;;;;1.80;0.82;;;15.50;93.00;;;15.91;72.62;101977.47;5193986;28;20119;-74
2022/07/17 01:13:43;;;;;;;3.05;1.65;;;15.60;92.60;;;15.91;72.75;101976.56;5200298;28;20401;-75
2022/07/17 01:16:16;;;;;;;1.88;0.90;;;15.50;92.60;;;15.83;73.08;101981.59;5199892;28;20552;-75
2022/07/17 01:18:48;;;;;;;1.50;1.25;;;15.50;92.70;;;15.78;73.07;101969.13;5195645;28;20562;-74
2022/07/17 01:21:22;;;;;;;2.20;1.10;;;15.50;92.80;;;15.72;73.60;101985.63;5178276;28;20037;-75
2022/07/17 01:23:54;;;;;;;2.72;1.02;;;15.40;93.00;;;15.66;73.99;101988.06;5192850;28;20120;-76
2022/07/17 01:26:26;;;;;;;2.03;1.08;;;15.30;93.20;;;15.61;74.57;101992.22;5197385;28;20049;-75
2022/07/17 01:28:58;;;;;;;1.67;1.00;;;15.30;93.50;;;15.57;75.00;101995.56;5200218;28;20049;-74
2022/07/17 01:31:30;;;;;;;2.03;1.10;;;15.30;93.80;;;15.54;75.27;101995.50;5194815;28;20096;-76
2022/07/17 01:34:04;;;;;;;1.00;0.90;;;15.20;94.00;;;15.48;75.60;101997.06;5192479;28;20500;-74
2022/07/17 01:36:38;;;;;;;1.67;1.25;;;15.20;94.10;;;15.43;76.13;101987.22;5195784;28;20065;-74
2022/07/17 01:39:10;;;;;;;1.52;1.20;;;15.10;94.40;;;15.39;76.44;101995.88;5194160;28;20042;-75
2022/07/17 01:41:43;;;;;;;1.27;1.00;;;15.10;94.60;;;15.35;76.74;101994.84;5185955;28;20132;-75
2022/07/17 01:44:15;;;;;;;2.00;1.10;;;15.00;94.80;;;15.34;77.32;101995.72;5188822;28;20045;-76
2022/07/17 01:46:47;;;;;;;1.85;1.13;;;15.00;95.40;;;15.35;77.09;102000.13;5201112;28;20120;-76
2022/07/17 01:49:19;;;;;;;1.42;0.90;;;15.00;95.40;;;15.35;76.63;101994.84;5190856;28;20052;-75
2022/07/17 01:51:53;;;;;;;1.38;1.13;;;15.00;95.10;;;15.34;76.34;101992.19;5187820;28;20510;-76
2022/07/17 01:54:25;;;;;;;1.48;1.10;;;15.00;95.00;;;15.34;75.95;101986.94;5188515;28;20418;-75
2022/07/17 01:56:57;;;;;;;2.45;1.20;;;15.00;94.90;;;15.31;76.17;101986.81;5168615;28;20515;-74
2022/07/17 01:59:29;;;;;;;1.20;1.00;;;15.00;95.00;;;15.27;76.34;101979.69;5168091;28;20513;-74
2022/07/17 02:02:01;;;;;;;3.78;1.00;;;14.90;95.20;;;15.22;76.63;101976.88;5168137;28;20471;-75
2022/07/17 02:04:34;;;;;;;1.80;1.20;;;14.90;95.60;;;15.19;76.71;101979.41;5185727;28;20096;-75
2022/07/17 02:07:09;;;;;;;1.77;1.33;;;14.90;95.40;;;15.16;76.95;101976.69;5185548;28;20128;-75
2022/07/17 02:09:41;;;;;;;2.08;1.02;;;14.80;95.60;;;15.12;76.91;101977.41;5186077;28;20042;-74
2022/07/17 02:12:13;;;;;;;1.50;1.20;;;14.80;95.70;;;15.10;77.50;101985.22;5185525;28;20045;-75
2022/07/17 02:14:45;;;;;;;2.40;1.10;;;14.80;95.90;;;15.09;77.62;101995.69;5186017;28;20073;-75
2022/07/17 02:17:17;;;;;;;2.65;1.17;;;14.80;96.00;;;15.07;77.54;101984.25;5167690;28;20054;-75
2022/07/17 02:19:49;;;;;;;2.25;1.13;;;14.80;96.00;;;15.07;77.22;101979.00;5185571;28;20049;-74
2022/07/17 02:22:23;;;;;;;1.10;1.00;;;14.80;96.00;;;15.07;77.25;101979.00;5167828;28;20054;-75
2022/07/17 02:24:55;;;;;;;1.38;0.98;;;14.80;96.00;;;15.04;77.28;101981.50;5184458;28;20042;-74
2022/07/17 02:27:27;;;;;;;1.27;0.90;;;14.70;96.10;;;14.98;77.64;101976.91;5184071;28;20145;-75
2022/07/17 02:29:59;;;;;;;2.75;1.20;;;14.70;96.30;;;14.91;77.86;101985.41;5185480;28;20060;-74
2022/07/17 02:32:31;;;;;;;2.10;1.00;;;14.60;96.40;;;14.85;78.60;101980.84;5197531;28;20045;-74
2022/07/17 02:35:04;;;;;;;1.13;1.02;;;14.60;96.70;;;14.80;78.62;101979.78;5196536;28;20050;-74
2022/07/17 02:37:41;;;;;;;2.25;1.10;;;14.50;96.80;;;14.78;78.69;101989.31;5188023;28;20085;-75
2022/07/17 02:40:14;;;;;;;1.67;1.15;;;14.50;97.00;;;14.75;79.07;101983.09;5205863;28;20464;-74
2022/07/17 02:42:46;;;;;;;1.42;1.13;;;14.40;97.00;;;14.73;79.18;101984.75;5188062;28;20048;-75
2022/07/17 02:45:24;;;;;;;1.33;1.08;;;14.40;97.20;;;14.68;79.30;101992.47;5205896;28;20502;-75
2022/07/17 02:47:56;;;;;;;2.30;1.08;;;14.40;97.30;;;14.65;79.26;101990.59;5204386;28;20136;-75
2022/07/17 02:50:28;;;;;;;2.22;1.02;;;14.40;97.40;;;14.62;79.61;101987.88;5187779;28;20072;-74
2022/07/17 02:53:02;;;;;;;3.30;1.30;;;14.30;97.50;;;14.60;79.89;101999.13;5187905;28;20426;-75
2022/07/17 02:55:34;;;;;;;2.17;1.00;;;14.30;97.70;;;14.57;79.75;101999.94;5205750;28;20099;-75
2022/07/17 02:58:06;;;;;;;3.13;1.10;;;14.30;98.00;;;14.54;80.19;102004.16;5205780;28;20385;-74
2022/07/17 03:00:39;;;;;;;1.58;0.90;;;14.30;97.90;;;14.50;80.36;101997.91;5187524;28;20132;-75
2022/07/17 03:03:11;;;;;;;1.05;0.80;;;14.20;98.00;;;14.49;80.27;102000.50;5187708;28;20037;-74
2022/07/17 03:05:43;;;;;;;1.75;1.27;;;14.20;98.10;;;14.44;80.22;101997.66;5187943;28;20506;-76
2022/07/17 03:08:17;;;;;;;2.97;1.30;;;14.20;98.20;;;14.40;80.24;101988.75;5205460;28;20501;-75
2022/07/17 03:10:49;;;;;;;1.88;1.30;;;14.20;98.20;;;14.37;79.73;101991.28;5205470;28;20091;-75
2022/07/17 03:13:21;;;;;;;2.38;1.40;;;14.10;98.00;;;14.35;79.79;101990.34;5205315;28;20041;-74
2022/07/17 03:15:53;;;;;;;1.35;1.10;;;14.10;98.00;;;14.35;79.33;101990.34;5205593;28;20128;-75
2022/07/17 03:18:25;;;;;;;1.92;1.13;;;14.10;98.00;;;14.31;79.36;101992.75;5205100;28;20091;-74
2022/07/17 03:20:58;;;;;;;1.33;1.00;;;14.10;98.00;;;14.27;79.88;101989.13;5205468;28;20045;-74
2022/07/17 03:23:31;;;;;;;2.40;1.40;;;14.00;98.20;;;14.24;80.34;101994.25;5187732;28;20465;-75
2022/07/17 03:26:04;;;;;;;2.25;1.20;;;14.00;98.40;;;14.22;80.79;102000.28;5187552;28;20052;-75
2022/07/17 03:28:36;;;;;;;1.13;1.02;;;14.00;98.60;;;14.19;81.21;101993.19;5205005;28;20073;-75
2022/07/17 03:31:08;;;;;;;1.45;1.10;;;14.00;98.80;;;14.15;81.40;101986.03;5205126;28;20042;-75
2022/07/17 03:33:40;;;;;;;1.88;1.20;;;13.90;98.90;;;14.12;81.67;101994.66;5205558;28;20127;-75
2022/07/17 03:36:12;;;;;;;3.22;1.38;;;13.90;99.10;;;14.10;82.06;102001.59;5205106;28;20055;-75
2022/07/17 03:38:46;;;;;;;4.30;1.30;;;13.90;99.20;;;14.09;81.73;101993.66;5187454;28;20510;-75
2022/07/17 03:41:18;;;;;;;2.17;1.10;;;13.80;99.20;;;14.09;81.41;101991.06;5205048;28;20128;-74
2022/07/17 03:43:50;;;;;;;1.48;1.20;;;13.80;99.10;;;14.05;81.28;101994.38;5190362;28;20064;-75
2022/07/17 03:46:23;;;;;;;1.40;1.00;;;13.80;99.10;;;14.01;81.76;101995.06;5191222;28;20051;-74
2022/07/17 03:48:55;;;;;;;2.45;1.13;;;13.80;99.20;;;13.97;81.76;101998.41;5208752;28;20391;-74
2022/07/17 03:51:27;;;;;;;1.83;1.10;;;13.70;99.40;;;13.94;82.34;102000.91;5208729;28;20465;-75
2022/07/17 03:54:01;;;;;;;2.15;1.08;;;13.70;99.50;;;13.93;82.56;102009.59;5209022;28;20037;-75
2022/07/17 03:56:33;;;;;;;2.05;1.25;;;13.70;99.70;;;13.92;82.67;102007.81;5208699;28;20128;-76
2022/07/17 03:59:05;;;;;;;1.35;0.95;;;13.70;99.70;;;13.92;82.73;102010.44;5208475;28;20127;-76
2022/07/17 04:01:38;;;;;;;1.50;1.30;;;13.70;99.80;;;13.94;82.45;102008.75;5191210;28;20148;-75
2022/07/17 04:04:10;;;;;;;2.17;1.27;;;13.70;99.90;;;13.95;82.38;102011.44;5208497;28;20046;-75
2022/07/17 04:06:42;;;;;;;1.05;0.90;;;13.70;99.80;;;13.97;82.35;102024.63;5190862;28;20140;-75
2022/07/17 04:09:16;;;;;;;2.58;1.17;;;13.70;99.80;;;13.97;82.34;102024.63;5190657;28;20049;-75
2022/07/17 04:11:48;;;;;;;1.45;1.02;;;13.70;99.90;;;13.97;82.54;102024.63;5208313;28;20132;-75
2022/07/17 04:14:20;;;;;;;2.60;1.38;;;13.70;99.90;;;13.97;82.53;102035.13;5208381;28;20041;-75
2022/07/17 04:16:52;;;;;;;2.42;1.30;;;13.70;99.90;;;13.97;82.86;102029.88;5190747;28;20073;-75
2022/07/17 04:19:24;;;;;;;2.08;1.30;;;13.70;99.90;;;13.99;83.10;102030.81;5208098;28;20095;-75
2022/07/17 04:21:56;;;;;;;1.75;1.40;;;13.70;99.90;;;14.02;82.80;102033.59;5208121;28;20041;-75
2022/07/17 04:24:30;;;;;;;3.50;1.00;;;13.80;99.90;;;14.05;82.89;102038.94;5208437;28;20524;-75
2022/07/17 04:27:02;;;;;;;1.83;1.10;;;13.80;99.90;;;14.07;82.41;102037.28;5208306;28;20041;-74
2022/07/17 04:29:35;;;;;;;1.73;1.25;;;13.80;99.90;;;14.07;82.49;102032.03;5207943;28;20441;-75
2022/07/17 04:32:08;;;;;;;3.25;1.40;;;13.80;99.90;;;14.09;82.45;102033.00;5190226;28;20572;-74
2022/07/17 04:34:40;;;;;;;1.73;1.33;;;13.80;99.90;;;14.11;81.88;102026.97;5189975;28;20148;-76
2022/07/17 04:37:12;;;;;;;1.63;1.33;;;13.90;99.90;;;14.13;81.65;102027.91;5207670;28;20045;-74
2022/07/17 04:39:46;;;;;;;2.22;1.33;;;13.90;99.80;;;14.16;81.27;102032.41;5189959;28;20065;-75
2022/07/17 04:42:18;;;;;;;2.78;1.40;;;13.90;99.70;;;14.19;81.06;102032.50;5189993;28;20459;-74
2022/07/17 04:44:50;;;;;;;1.30;1.20;;;13.90;99.80;;;14.25;80.79;102031.88;5190155;28;20053;-75
2022/07/17 04:47:22;;;;;;;2.55;1.52;;;14.00;99.50;;;14.28;80.46;102025.03;5207578;28;20076;-74
2022/07/17 04:49:55;;;;;;;3.60;1.35;;;14.00;99.40;;;14.31;80.50;102035.63;5221164;22;20137;-77
2022/07/17 04:52:28;;;;;;;1.75;1.20;;;14.10;99.30;;;14.35;80.71;102029.69;5206875;28;20137;-76
2022/07/17 04:55:01;;;;;;;2.83;1.20;;;14.10;99.30;;;14.44;80.79;102030.84;5190858;28;20057;-77
2022/07/17 04:57:34;;;;;;;1.77;1.23;;;14.20;99.40;;;14.66;82.64;102033.50;5208738;28;20069;-77
2022/07/17 05:00:09;;;;;;;2.58;1.40;;;14.30;99.90;;;15.14;81.69;102033.53;5190874;28;20056;-77
2022/07/17 05:02:41;;;;;;;2.85;1.50;;;14.70;99.90;;;15.72;78.53;102033.84;5208983;28;20048;-77
2022/07/17 05:05:14;;;;;;;2.50;1.60;;;15.20;98.90;;;16.07;74.88;102046.34;5191015;28;20049;-77
2022/07/17 05:07:46;;;;;;;2.42;1.50;;;15.60;97.30;;;16.55;73.30;102057.50;5208376;28;20069;-77
2022/07/17 05:10:19;;;;;;;1.88;1.40;;;16.10;96.70;;;16.93;71.43;102044.59;5190871;28;20045;-76
2022/07/17 05:12:52;;;;;;;2.00;1.40;;;16.50;95.80;;;17.34;69.45;102035.19;5208606;28;20486;-78
2022/07/17 05:15:24;;;;;;;4.65;1.70;;;16.80;95.10;;;17.79;67.43;102045.19;5209162;28;20051;-79
2022/07/17 05:17:56;;;;;;;3.38;1.92;;;17.30;93.80;;;18.17;65.09;102051.41;5208840;28;20042;-77
2022/07/17 05:20:29;;;;;;;2.33;1.50;;;17.70;93.10;;;18.45;64.78;102047.63;5209298;28;20052;-78
2022/07/17 05:23:01;;;;;;;3.70;1.20;;;18.00;92.10;;;18.82;62.79;102038.78;5190728;28;20459;-76
2022/07/17 05:25:35;;;;;;;5.65;1.50;;;18.30;91.20;;;19.14;61.41;102044.72;5209012;28;20065;-77
2022/07/17 05:28:07;;;;;;;1.92;1.15;;;18.60;90.40;;;19.33;60.64;102047.72;5191443;28;20053;-78
2022/07/17 05:30:39;;;;;;;1.83;1.17;;;18.80;89.40;;;19.71;59.24;102056.38;5209582;28;20124;-78
2022/07/17 05:33:11;;;;;;;2.42;1.40;;;19.10;87.80;;;19.92;58.12;102059.38;5209374;28;20080;-77
2022/07/17 05:35:43;;;;;;;3.38;1.70;;;19.30;86.10;;;20.24;57.75;102064.28;5191248;28;20402;-78
2022/07/17 05:38:16;;;;;;;3.17;1.23;;;19.60;85.40;;;20.58;56.46;102071.00;5209602;28;20049;-78
2022/07/17 05:40:49;;;;;;;3.33;1.45;;;19.90;84.10;;;20.85;55.71;102073.13;5209380;28;20080;-77
2022/07/17 05:43:22;;;;;;;3.45;1.20;;;20.10;82.40;;;21.23;55.00;102083.31;5192232;28;20073;-78
2022/07/17 05:45:55;;;;;;;1.65;1.25;;;20.40;81.50;;;21.68;53.44;102077.63;5209844;28;20814;-77
2022/07/17 05:48:28;;;;;;;2.67;1.10;;;20.80;79.50;;;22.07;52.40;102070.88;5209544;28;20501;-77
2022/07/17 05:51:00;;;;;;;4.30;1.30;;;21.10;77.80;;;22.27;51.80;102071.94;5192174;28;20053;-76
2022/07/17 05:53:33;;;;;;;1.75;1.20;;;21.40;76.70;;;22.58;50.85;102074.78;5209947;28;20073;-77
2022/07/17 05:56:07;;;;;;;3.03;1.17;;;21.80;75.10;;;22.99;50.15;102083.84;5211170;28;20462;-77
2022/07/17 05:58:40;;;;;;;2.28;1.30;;;22.10;74.10;;;23.22;49.01;102080.41;5208713;28;20044;-75
2022/07/17 06:01:12;;;;;;;4.43;1.40;;;22.30;72.30;;;23.41;48.26;102074.25;5206331;28;20132;-73
2022/07/17 06:03:44;;;;;;;2.22;1.20;;;22.50;71.10;;;23.55;47.50;102082.25;5188977;28;20099;-74
2022/07/17 06:06:16;;;;;;;2.45;1.25;;;22.60;69.70;;;23.81;46.85;102084.97;5187633;28;20080;-75
2022/07/17 06:08:48;;;;;;;1.90;1.30;;;22.90;69.50;;;24.14;46.70;102099.19;5206228;28;20130;-74
2022/07/17 06:11:22;;;;;;;3.47;1.50;;;23.10;68.40;;;24.18;45.36;102093.81;5206565;28;20049;-72
2022/07/17 06:13:54;;;;;;;4.35;1.38;;;23.20;66.70;;;24.16;45.60;102105.38;5206203;28;20486;-72
2022/07/17 06:16:26;;;;;;;2.67;1.63;;;23.30;67.20;;;23.90;45.43;102108.03;5188363;28;20053;-72
2022/07/17 06:18:59;;;;;;;4.93;1.85;;;23.10;66.00;;;23.61;46.20;102106.25;5205840;28;20128;-72
2022/07/17 06:21:31;;;;;;;3.75;1.45;;;22.90;66.30;;;23.54;46.31;102102.66;5188382;28;20087;-70
2022/07/17 06:24:03;;;;;;;3.22;1.73;;;22.90;66.60;;;23.52;46.58;102106.19;5206204;28;20116;-70
2022/07/17 06:26:37;;;;;;;2.47;1.48;;;22.80;66.60;;;23.83;46.07;102107.16;5188358;28;20575;-70
2022/07/17 06:29:09;;;;;;;2.42;1.70;;;23.10;66.60;;;24.09;45.35;102084.06;5205932;28;20489;-70
2022/07/17 06:31:41;;;;;;;3.42;1.95;;;23.20;66.20;;;24.21;45.28;102087.63;5206082;28;20132;-70
2022/07/17 06:34:13;;;;;;;2.05;1.63;;;23.30;64.90;;;24.22;45.48;102089.38;5205824;28;20039;-70
2022/07/17 06:36:46;;;;;;;4.55;2.05;;;23.30;65.10;;;24.29;45.35;102091.16;5205979;28;20053;-70
2022/07/17 06:39:18;;;;;;;6.13;1.92;;;23.40;64.80;;;24.46;45.38;102092.06;5205593;28;20041;-69
2022/07/17 06:41:51;;;;;;;3.25;1.90;;;23.50;64.80;;;24.64;45.36;102091.97;5187972;28;20053;-65
2022/07/17 06:44:24;;;;;;;2.97;1.63;;;23.70;65.20;;;24.47;45.67;102093.81;5205882;28;20065;-67
2022/07/17 06:46:56;;;;;;;3.67;1.50;;;23.60;65.20;;;23.99;46.33;102095.59;5205898;28;20243;-66
2022/07/17 06:49:28;;;;;;;3.20;1.38;;;23.40;65.00;;;23.54;47.09;102085.81;5205374;28;20079;-67
2022/07/17 06:52:00;;;;;;;2.75;1.50;;;23.10;65.60;;;23.27;47.81;102083.94;5186277;28;20056;-66
2022/07/17 06:54:32;;;;;;;1.75;1.40;;;22.80;66.30;;;23.09;48.10;102083.91;5203679;28;20397;-69
2022/07/17 06:57:07;;;;;;;2.22;1.52;;;22.60;66.70;;;22.94;48.24;102080.28;5211022;28;20445;-67
2022/07/17 06:59:40;;;;;;;3.22;1.23;;;22.40;67.00;;;22.75;48.51;102073.97;5209039;28;20545;-68
2022/07/17 07:02:12;;;;;;;2.55;1.30;;;22.20;67.10;;;22.57;48.70;102079.22;5195004;28;20117;-67
2022/07/17 07:04:44;;;;;;;3.00;1.30;;;22.00;67.40;;;22.41;49.11;102077.31;5209566;28;20042;-67
2022/07/17 07:07:16;;;;;;;1.55;1.23;;;21.80;67.80;;;22.37;49.62;102064.94;5213321;28;20128;-67
2022/07/17 07:09:49;;;;;;;1.98;1.25;;;21.80;68.50;;;22.44;49.70;102061.41;5185072;28;20042;-69
2022/07/17 07:12:22;;;;;;;3.40;1.48;;;21.80;68.90;;;22.50;49.85;102061.47;5203528;28;20076;-68
2022/07/17 07:14:54;;;;;;;2.83;1.40;;;21.80;69.00;;;22.59;49.70;102055.28;5205270;28;20498;-67
2022/07/17 07:17:27;;;;;;;2.08;1.17;;;21.80;68.90;;;22.65;49.72;102047.34;5205938;28;20049;-68
2022/07/17 07:19:59;;;;;;;1.60;1.17;;;21.90;68.90;;;22.76;49.52;102058.94;5209666;28;20080;-67
2022/07/17 07:22:31;;;;;;;3.42;1.38;;;21.90;69.00;;;22.86;49.29;102054.53;5209342;28;20409;-67
2022/07/17 07:25:04;;;;;;;3.00;1.67;;;22.00;68.90;;;22.78;48.91;102050.97;5209356;28;20045;-67
2022/07/17 07:27:38;;;;;;;4.28;1.35;;;22.00;68.20;;;22.75;49.40;102057.13;5191382;28;20061;-67
2022/07/17 07:30:11;;;;;;;4.65;1.10;;;22.00;68.40;;;22.92;49.57;102060.78;5191575;28;20099;-69
2022/07/17 07:32:43;;;;;;;1.42;1.05;;;22.10;68.90;;;23.16;49.39;102056.44;5209314;28;20054;-73
2022/07/17 07:35:15;;;;;;;1.58;1.20;;;22.30;68.90;;;23.38;48.96;102060.03;5191889;28;20132;-72
2022/07/17 07:37:48;;;;;;;2.67;1.33;;;22.40;68.50;;;23.52;48.25;102058.28;5208933;28;20512;-73
2022/07/17 07:40:20;;;;;;;3.28;1.13;;;22.60;68.00;;;23.63;47.99;102050.34;5209226;28;20049;-72
2022/07/17 07:42:53;;;;;;;1.38;1.05;;;22.70;67.70;;;23.81;47.88;102047.69;5209094;28;20451;-72
2022/07/17 07:45:26;;;;;;;2.92;1.02;;;22.80;67.70;;;23.99;46.76;102041.44;5208915;28;20129;-72
2022/07/17 07:47:58;;;;;;;3.53;1.33;;;22.90;67.20;;;24.19;46.08;102042.34;5208995;28;20073;-73
2022/07/17 07:50:30;;;;;;;1.52;0.98;;;23.10;65.80;;;24.36;45.87;102040.53;5208735;28;20045;-71
2022/07/17 07:53:02;;;;;;;2.92;1.08;;;23.30;65.40;;;24.50;45.13;102039.59;5191876;28;20049;-73
2022/07/17 07:55:35;;;;;;;2.72;1.33;;;23.40;64.70;;;24.61;44.87;102040.47;5202277;28;20069;-71
2022/07/17 07:58:10;;;;;;;2.97;1.10;;;23.50;64.10;;;24.77;44.50;102046.63;5219263;28;20059;-72
2022/07/17 08:00:45;;;;;;;2.08;1.10;;;23.70;64.00;;;24.97;44.15;102044.75;5208529;28;20120;-72
2022/07/17 08:03:18;;;;;;;2.00;0.90;;;23.80;63.60;;;25.23;43.68;102030.41;5208592;28;20128;-70
2022/07/17 08:05:50;;;;;;;2.50;1.00;;;24.00;63.10;;;25.50;43.36;102040.91;5208808;28;20041;-73
2022/07/17 08:08:22;;;;;;;2.67;0.95;;;24.20;62.90;;;25.74;42.70;102039.84;5208412;28;20045;-72
2022/07/17 08:10:54;;;;;;;2.92;1.23;;;24.30;62.40;;;25.95;42.38;102038.75;5208439;28;20128;-69
2022/07/17 08:13:28;;;;;;;3.90;1.20;;;24.50;61.70;;;26.21;41.72;102047.44;5208552;28;20049;-72
2022/07/17 08:16:00;;;;;;;1.90;0.85;;;24.70;61.10;;;26.49;40.90;102047.16;5208277;28;20045;-73
2022/07/17 08:18:32;;;;;;;1.63;1.00;;;24.80;60.30;;;26.96;40.34;102048.34;5199174;28;20565;-71
2022/07/17 08:21:05;;;;;;;2.70;0.98;;;25.10;59.90;;;27.52;39.29;102049.38;5197327;28;20044;-73
2022/07/17 08:23:37;;;;;;;3.25;1.00;;;25.40;59.20;;;28.06;39.10;102063.66;5195129;28;20053;-71
2022/07/17 08:26:10;;;;;;;1.60;0.75;;;25.70;59.30;;;28.60;38.44;102060.84;5195476;28;20041;-71
2022/07/17 08:28:44;;;;;;;2.13;0.90;;;25.90;58.90;;;29.34;36.87;102062.88;5197347;28;20041;-70
2022/07/17 08:31:16;;;;;;;2.55;1.00;;;26.30;58.10;;;30.15;36.13;102070.75;5198862;28;20045;-70
2022/07/17 08:33:48;;;;;;;2.35;0.90;;;26.70;58.10;;;30.72;35.08;102068.28;5207878;28;20207;-72
2022/07/17 08:36:21;;;;;;;3.10;0.90;;;27.00;56.60;;;31.24;34.54;102074.81;5208102;28;20046;-69
2022/07/17 08:38:53;;;;;;;3.22;1.00;;;27.30;56.10;;;32.14;33.58;102081.72;5207705;28;20060;-73
2022/07/17 08:41:26;;;;;;;1.52;0.80;;;27.70;55.80;;;33.12;32.25;102076.28;5204586;28;20462;-72
2022/07/17 08:43:59;;;;;;;1.48;0.85;;;28.20;55.00;;;33.96;31.28;102074.69;5206088;28;20120;-72
2022/07/17 08:46:33;;;;;;;3.10;0.80;;;28.80;54.10;;;35.08;30.47;102070.53;5187448;28;20048;-74
2022/07/17 08:49:08;;;;;;;1.30;0.93;;;29.70;53.10;;;36.23;29.11;102073.81;5187003;28;20046;-72
2022/07/17 08:51:40;;;;;;;2.50;0.93;;;30.70;51.10;;;37.13;27.62;102081.59;5187115;28;20126;-70
2022/07/17 08:54:13;;;;;;;1.67;0.77;;;31.70;49.10;;;37.73;26.81;102073.59;5187210;28;20453;-74
2022/07/17 08:56:45;;;;;;;2.58;0.95;;;32.50;47.90;;;38.19;26.43;102076.28;5187265;28;20052;-76
2022/07/17 08:59:19;;;;;;;3.05;0.80;;;33.10;47.00;;;38.61;26.07;102080.06;5186829;28;20092;-72
2022/07/17 09:01:51;;;;;;;1.98;0.70;;;33.60;46.10;;;38.58;25.50;102077.50;5186887;28;20136;-74
2022/07/17 09:04:24;;;;;;;2.00;0.70;;;33.80;44.90;;;38.69;25.67;102077.72;5186974;28;20096;-72
2022/07/17 09:07:01;;;;;;;;;;;33.90;45.00;;;38.93;24.92;102081.63;5187274;28;20034;-75
2022/07/17 09:09:34;;;;;;;1.35;0.82;;;34.10;43.80;;;39.30;24.32;102082.81;5186531;28;20271;-76
2022/07/17 09:12:06;;;;;;;2.53;0.73;;;34.30;43.40;;;39.53;24.41;102081.28;5186624;28;20052;-73
2022/07/17 09:14:42;;;;;;;2.97;0.80;;;34.60;43.20;;;39.74;23.75;102084.44;5186717;28;20048;-73
2022/07/17 09:17:14;;;;;;;0.77;0.52;;;34.80;42.60;;;39.85;23.70;102081.88;5186315;28;20077;-73
2022/07/17 09:19:46;;;;;;;2.33;0.70;;;34.90;42.20;;;39.72;24.06;102080.97;5186363;28;20116;-72
2022/07/17 09:22:22;;;;;;;2.40;0.75;;;34.90;42.20;;;39.67;24.27;102087.72;5185175;28;20057;-72
2022/07/17 09:24:57;;;;;;;1.63;0.63;;;35.00;42.20;;;39.33;23.92;102082.63;5188919;28;20126;-71
2022/07/17 09:27:32;;;;;;;1.60;0.52;;;34.90;41.80;;;38.65;24.19;102087.03;5206606;28;20049;-72
2022/07/17 09:30:11;;;;;;;1.30;0.60;;;34.60;41.70;;;37.41;24.72;102070.03;5206789;28;20045;-70
2022/07/17 09:32:43;;;;;;;2.20;0.68;;;33.90;41.80;;;36.35;25.88;102067.72;5206814;28;20076;-72
2022/07/17 09:35:16;;;;;;;3.67;0.70;;;33.30;42.60;;;35.63;26.94;102059.72;5187758;28;20045;-69
2022/07/17 09:37:48;;;;;;;1.17;0.60;;;33.00;43.20;;;34.76;27.26;102050.38;5198292;28;20050;-74
2022/07/17 09:43:12;;;;;;;2.92;0.80;;;32.10;43.60;;;33.13;28.72;102053.75;5206788;28;20050;-75
2022/07/17 09:45:46;;;;;;;2.15;0.95;;;31.60;44.20;;;32.36;29.42;102057.59;5200988;28;20052;-73
2022/07/17 09:48:17;;;;;;;;;;;31.00;44.50;;;31.59;29.82;102053.91;5206152;28;20061;-71
2022/07/17 09:50:50;;;;;;;1.88;0.80;;;30.40;44.50;;;31.05;30.50;102061.00;5188673;28;20297;-72
2022/07/17 09:53:22;;;;;;;2.03;0.80;;;29.90;45.20;;;30.69;31.46;102051.31;5206674;28;20043;-73
2022/07/17 09:55:59;;;;;;;3.28;0.75;;;29.60;46.00;;;30.38;31.78;102049.47;5200090;28;20045;-71
2022/07/17 09:58:34;;;;;;;2.45;0.77;;;29.20;46.30;;;30.21;31.58;102046.38;5195842;28;20041;-75
2022/07/17 10:01:08;;;;;;;1.50;0.75;;;29.10;46.50;;;30.14;31.97;102042.09;5185945;28;20049;-73
2022/07/17 10:03:40;;;;;;;2.88;0.93;;;29.00;46.60;;;29.99;31.37;102049.63;5203469;28;20125;-74
2022/07/17 10:06:12;;;;;;;2.15;0.70;;;28.90;45.90;;;29.88;31.38;102046.34;5188513;28;20041;-72
2022/07/17 10:08:45;;;;;;;1.75;0.68;;;28.80;46.20;;;29.80;32.20;102036.69;5205979;28;20050;-71
2022/07/17 10:11:20;;;;;;;1.95;0.63;;;28.70;46.60;;;29.86;32.66;102040.09;5198120;28;20077;-71
2022/07/17 10:13:56;;;;;;;0.70;0.55;;;28.70;48.10;;;29.88;32.66;102038.28;5185844;28;20463;-72
2022/07/17 10:16:32;;;;;;;1.50;0.70;;;28.70;47.30;;;29.83;32.23;102040.19;5185792;28;20069;-71
2022/07/17 10:19:17;;;;;;;1.48;0.70;;;28.70;47.00;;;29.72;32.42;102036.88;5186365;28;20067;-71
2022/07/17 10:21:59;;;;;;;2.85;0.88;;;28.60;46.90;;;29.57;32.34;102034.59;5202857;28;20041;-71
2022/07/17 10:24:31;;;;;;;3.63;0.90;;;28.50;46.90;;;29.49;32.18;102044.63;5203243;28;20490;-70
2022/07/17 10:27:04;;;;;;;1.15;0.70;;;28.40;46.60;;;29.54;31.93;102043.63;5205697;28;20044;-73
2022/07/17 10:29:39;;;;;;;1.75;0.70;;;28.50;46.40;;;29.66;32.42;102031.66;5205588;28;20056;-72
2022/07/17 10:32:16;;;;;;;1.80;0.60;;;28.60;47.10;;;29.80;32.61;102031.31;5205349;28;20045;-71
2022/07/17 10:34:54;;;;;;;2.42;0.80;;;28.60;47.30;;;29.67;32.42;102037.03;5205764;28;20050;-72
2022/07/17 10:37:31;;;;;;;2.33;0.88;;;28.60;47.00;;;29.70;32.32;102041.41;5201227;28;20045;-69
2022/07/17 10:40:07;;;;;;;1.60;0.68;;;28.60;47.10;;;29.61;32.80;102030.91;5205397;28;20041;-71